Aviation Digital Data Service (ADDS)

Output produced by METARs form (1027 UTC 25 June 2016)
found at http://www.aviationweather.gov/adds/metars/
 
KIPT 250954Z AUTO 30003KT 8SM CLR 16/14 A3015 RMK AO2 SLP207 T01560139
KIPT 250854Z AUTO 00000KT 10SM CLR 17/14 A3013 RMK AO2 SLP200 T01670144 53006
KIPT 250754Z AUTO 00000KT 10SM CLR 17/15 A3012 RMK AO2 SLP197 T01720150
KIPT 250654Z AUTO 31003KT 10SM CLR 17/15 A3012 RMK AO2 SLP197 T01720150
KIPT 250554Z AUTO 00000KT 10SM CLR 19/16 A3011 RMK AO2 SLP194 T01890156 10250 20189 53008
KIPT 250454Z AUTO 10003KT 10SM CLR 21/16 A3010 RMK AO2 SLP189 T02060156 402780144
KIPT 250354Z AUTO 10004KT 10SM BKN050 OVC095 23/16 A3009 RMK AO2 SLP185 T02280156
KIPT 250254Z AUTO 00000KT 10SM BKN050 OVC090 24/16 A3009 RMK AO2 SLP185 T02390156 52018
KIPT 250154Z 00000KT 10SM BKN095 24/15 A3007 RMK AO2 SLP179 T02390150
KIPT 250054Z 33003KT 10SM BKN080 OVC090 24/15 A3005 RMK AO2 SLP173 T02390150
KIPT 242354Z 00000KT 10SM FEW090 25/17 A3003 RMK AO2 SLP167 T02500167 10278 20239 55000
KIPT 242254Z 00000KT 10SM FEW090 27/13 A3003 RMK AO2 SLP165 T02720128
KIPT 242154Z 21006KT 10SM SCT050 27/13 A3003 RMK AO2 SLP165 T02720128
KIPT 242054Z 27006KT 10SM FEW110 27/13 A3003 RMK AO2 SLP168 T02670128 58003
KIPT 241954Z 27008KT 10SM SCT110 26/14 A3004 RMK AO2 SLP169 T02610139
KIPT 241854Z 27011KT 10SM BKN085 24/14 A3005 RMK AO2 SLP173 T02390139
KIPT 241754Z VRB04KT 10SM BKN075 OVC090 26/12 A3004 RMK AO2 SLP171 T02610122 10267 20167 58002
KIPT 241654Z VRB03KT 10SM BKN090 25/12 A3005 RMK AO2 SLP172 T02500117
KIPT 241554Z 18003KT 10SM BKN090 BKN100 24/11 A3005 RMK AO2 SLP172 T02440111
KIPT 241454Z 24004KT 10SM BKN100 23/11 A3005 RMK AO2 SLP172 T02280111 50008
KIPT 241354Z 22006KT 10SM SCT090 21/11 A3005 RMK AO2 SLP174 T02060106
KIPT 241254Z 25004KT 10SM BKN055 19/13 A3005 RMK AO2 SLP173 T01890128
KIPT 241154Z 25004KT 10SM OVC100 17/14 A3002 RMK AO2 SLP165 70003 T01670139 10167 20144 53018
KIPT 241054Z 29004KT 10SM OVC095 16/13 A3000 RMK AO2 SLP157 T01560133
KIPT 240954Z AUTO 27006KT 10SM OVC095 16/13 A2999 RMK AO2 SLP152 T01560133
KIPT 240854Z AUTO 27003KT 10SM CLR 14/13 A2997 RMK AO2 SLP147 T01440128 51013
KIPT 240754Z AUTO 00000KT 10SM FEW003 SCT090 16/14 A2996 RMK AO2 SLP143 T01560139
KIPT 240745Z AUTO 00000KT 10SM SCT003 16/14 A2996 RMK AO2 T01560139
KIPT 240721Z AUTO 00000KT 10SM BKN003 OVC055 16/14 A2996 RMK AO2 T01610144
KIPT 240711Z AUTO 30003KT 10SM SCT003 OVC055 16/14 A2995 RMK AO2 T01610139
KIPT 240654Z AUTO 00000KT 10SM OVC050 17/14 A2995 RMK AO2 SLP139 T01670144
KIPT 240554Z AUTO 29003KT 10SM FEW001 BKN050 17/15 A2993 RMK AO2 SLP134 T01720150 10222 20167 53004
KIPT 240512Z AUTO 00000KT 3SM BR FEW002 18/16 A2992 RMK AO2 T01780161
KIPT 240454Z AUTO 25003KT 3SM BR CLR 18/16 A2992 RMK AO2 SLP130 T01780161 402670156
KIPT 240450Z AUTO 29003KT 2SM BR CLR 18/17 A2992 RMK AO2 VIS 1 1/2V4
KIPT 240354Z AUTO 00000KT 4SM BR CLR 18/17 A2992 RMK AO2 SLP130 T01830172
KIPT 240334Z AUTO 00000KT 5SM BR FEW006 19/17 A2991 RMK AO2 T01890172
KIPT 240312Z AUTO 00000KT 7SM BKN006 19/18 A2992 RMK AO2 CIG 003V008 T01940178
KIPT 240305Z AUTO 00000KT 6SM BR BKN004 19/18 A2992 RMK AO2 CIG 003V008 T01940178
KIPT 240254Z AUTO 22004KT 5SM BR SCT004 19/18 A2991 RMK AO2 SLP126 T01890178 51024
KIPT 240154Z 00000KT 7SM FEW110 20/18 A2989 RMK AO2 SLP120 T02000183
KIPT 240054Z 00000KT 6SM BR CLR 21/19 A2988 RMK AO2 PRESRR SLP115 T02060189
KIPT 232354Z 31004KT 10SM CLR 22/19 A2984 RMK AO2 RAE10 SLP102 P0000 60002 T02220189 10267 20206 51005
KIPT 232254Z 26008KT 10SM -RA FEW080 BKN100 OVC120 22/18 A2984 RMK AO2 SLP101 P0001 T02170183